sensor_id;sensor_type;location;lat;lon;timestamp;P1;durP1;ratioP1;P2;durP2;ratioP2
20945;SDS011;10632;51.276;7.116;2023-04-25T00:00:09;11.30;;;1.92;;
20945;SDS011;10632;51.276;7.116;2023-04-25T00:02:37;5.85;;;1.70;;
20945;SDS011;10632;51.276;7.116;2023-04-25T00:05:05;7.40;;;2.00;;
20945;SDS011;10632;51.276;7.116;2023-04-25T00:07:33;12.82;;;1.95;;
20945;SDS011;10632;51.276;7.116;2023-04-25T00:10:00;6.25;;;1.77;;
20945;SDS011;10632;51.276;7.116;2023-04-25T00:12:30;5.07;;;1.48;;
20945;SDS011;10632;51.276;7.116;2023-04-25T00:14:58;7.37;;;1.50;;
20945;SDS011;10632;51.276;7.116;2023-04-25T00:17:25;7.90;;;1.73;;
20945;SDS011;10632;51.276;7.116;2023-04-25T00:19:53;7.37;;;1.50;;
20945;SDS011;10632;51.276;7.116;2023-04-25T00:22:21;6.07;;;1.60;;
20945;SDS011;10632;51.276;7.116;2023-04-25T00:24:48;8.13;;;1.83;;
20945;SDS011;10632;51.276;7.116;2023-04-25T00:27:15;8.52;;;1.70;;
20945;SDS011;10632;51.276;7.116;2023-04-25T00:29:42;7.18;;;1.77;;
20945;SDS011;10632;51.276;7.116;2023-04-25T00:32:09;7.87;;;1.57;;
20945;SDS011;10632;51.276;7.116;2023-04-25T00:34:36;4.33;;;1.10;;
20945;SDS011;10632;51.276;7.116;2023-04-25T00:37:02;5.55;;;1.55;;
20945;SDS011;10632;51.276;7.116;2023-04-25T00:39:31;5.57;;;1.30;;
20945;SDS011;10632;51.276;7.116;2023-04-25T00:41:58;6.30;;;1.55;;
20945;SDS011;10632;51.276;7.116;2023-04-25T00:44:25;5.18;;;1.40;;
20945;SDS011;10632;51.276;7.116;2023-04-25T00:46:54;11.43;;;2.10;;
20945;SDS011;10632;51.276;7.116;2023-04-25T00:49:21;6.80;;;1.30;;
20945;SDS011;10632;51.276;7.116;2023-04-25T00:51:48;5.13;;;1.50;;
20945;SDS011;10632;51.276;7.116;2023-04-25T00:54:15;6.30;;;1.80;;
20945;SDS011;10632;51.276;7.116;2023-04-25T00:56:44;5.63;;;1.67;;
20945;SDS011;10632;51.276;7.116;2023-04-25T00:59:11;10.87;;;1.50;;
20945;SDS011;10632;51.276;7.116;2023-04-25T01:01:39;5.22;;;1.67;;
20945;SDS011;10632;51.276;7.116;2023-04-25T01:04:07;5.40;;;1.83;;
20945;SDS011;10632;51.276;7.116;2023-04-25T01:06:34;4.17;;;1.60;;
20945;SDS011;10632;51.276;7.116;2023-04-25T01:09:01;5.28;;;1.30;;
20945;SDS011;10632;51.276;7.116;2023-04-25T01:11:29;6.75;;;1.55;;
20945;SDS011;10632;51.276;7.116;2023-04-25T01:13:58;5.40;;;1.50;;
20945;SDS011;10632;51.276;7.116;2023-04-25T01:16:25;6.97;;;1.58;;
20945;SDS011;10632;51.276;7.116;2023-04-25T01:18:52;6.80;;;1.80;;
20945;SDS011;10632;51.276;7.116;2023-04-25T01:21:21;4.05;;;1.45;;
20945;SDS011;10632;51.276;7.116;2023-04-25T01:23:51;7.75;;;1.83;;
20945;SDS011;10632;51.276;7.116;2023-04-25T01:26:18;6.60;;;1.40;;
20945;SDS011;10632;51.276;7.116;2023-04-25T01:28:47;3.58;;;1.33;;
20945;SDS011;10632;51.276;7.116;2023-04-25T01:31:15;6.18;;;1.52;;
20945;SDS011;10632;51.276;7.116;2023-04-25T01:33:42;7.68;;;1.42;;
20945;SDS011;10632;51.276;7.116;2023-04-25T01:36:10;5.93;;;1.50;;
20945;SDS011;10632;51.276;7.116;2023-04-25T01:38:38;9.57;;;1.50;;
20945;SDS011;10632;51.276;7.116;2023-04-25T01:41:06;4.77;;;1.60;;
20945;SDS011;10632;51.276;7.116;2023-04-25T01:43:33;6.72;;;1.90;;
20945;SDS011;10632;51.276;7.116;2023-04-25T01:46:00;6.13;;;1.55;;
20945;SDS011;10632;51.276;7.116;2023-04-25T01:48:27;6.47;;;1.50;;
20945;SDS011;10632;51.276;7.116;2023-04-25T01:50:54;2.95;;;1.10;;
20945;SDS011;10632;51.276;7.116;2023-04-25T01:53:21;6.72;;;1.80;;
20945;SDS011;10632;51.276;7.116;2023-04-25T01:55:50;7.38;;;1.90;;
20945;SDS011;10632;51.276;7.116;2023-04-25T01:58:17;6.50;;;1.63;;
20945;SDS011;10632;51.276;7.116;2023-04-25T02:00:43;6.05;;;1.50;;
20945;SDS011;10632;51.276;7.116;2023-04-25T02:03:10;9.38;;;1.40;;
20945;SDS011;10632;51.276;7.116;2023-04-25T02:05:37;6.15;;;1.60;;
20945;SDS011;10632;51.276;7.116;2023-04-25T02:08:05;11.23;;;2.03;;
20945;SDS011;10632;51.276;7.116;2023-04-25T02:10:33;7.05;;;1.15;;
20945;SDS011;10632;51.276;7.116;2023-04-25T02:13:01;5.13;;;1.83;;
20945;SDS011;10632;51.276;7.116;2023-04-25T02:15:29;3.88;;;1.17;;
20945;SDS011;10632;51.276;7.116;2023-04-25T02:17:56;7.00;;;1.95;;
20945;SDS011;10632;51.276;7.116;2023-04-25T02:20:25;6.65;;;1.60;;
20945;SDS011;10632;51.276;7.116;2023-04-25T02:22:52;8.13;;;1.80;;
20945;SDS011;10632;51.276;7.116;2023-04-25T02:25:19;11.67;;;1.90;;
20945;SDS011;10632;51.276;7.116;2023-04-25T02:27:47;5.87;;;1.70;;
20945;SDS011;10632;51.276;7.116;2023-04-25T02:30:15;6.05;;;2.08;;
20945;SDS011;10632;51.276;7.116;2023-04-25T02:32:42;5.68;;;1.92;;
20945;SDS011;10632;51.276;7.116;2023-04-25T02:35:09;8.13;;;2.03;;
20945;SDS011;10632;51.276;7.116;2023-04-25T02:37:37;5.70;;;1.83;;
20945;SDS011;10632;51.276;7.116;2023-04-25T02:40:05;5.95;;;1.58;;
20945;SDS011;10632;51.276;7.116;2023-04-25T02:42:33;6.00;;;2.03;;
20945;SDS011;10632;51.276;7.116;2023-04-25T02:45:00;12.93;;;2.97;;
20945;SDS011;10632;51.276;7.116;2023-04-25T02:47:29;4.88;;;1.98;;
20945;SDS011;10632;51.276;7.116;2023-04-25T02:49:56;11.93;;;2.70;;
20945;SDS011;10632;51.276;7.116;2023-04-25T02:52:23;7.70;;;2.67;;
20945;SDS011;10632;51.276;7.116;2023-04-25T02:54:49;12.43;;;2.38;;
20945;SDS011;10632;51.276;7.116;2023-04-25T02:57:16;9.27;;;2.67;;
20945;SDS011;10632;51.276;7.116;2023-04-25T02:59:46;7.57;;;2.30;;
20945;SDS011;10632;51.276;7.116;2023-04-25T03:02:13;8.43;;;2.67;;
20945;SDS011;10632;51.276;7.116;2023-04-25T03:04:44;8.00;;;2.00;;
20945;SDS011;10632;51.276;7.116;2023-04-25T03:07:11;10.52;;;2.80;;
20945;SDS011;10632;51.276;7.116;2023-04-25T03:09:38;12.98;;;2.53;;
20945;SDS011;10632;51.276;7.116;2023-04-25T03:12:05;12.27;;;3.10;;
20945;SDS011;10632;51.276;7.116;2023-04-25T03:14:32;14.45;;;3.10;;
20945;SDS011;10632;51.276;7.116;2023-04-25T03:16:59;12.00;;;2.60;;
20945;SDS011;10632;51.276;7.116;2023-04-25T03:19:26;5.88;;;2.08;;
20945;SDS011;10632;51.276;7.116;2023-04-25T03:21:54;9.97;;;2.73;;
20945;SDS011;10632;51.276;7.116;2023-04-25T03:24:21;7.85;;;2.17;;
20945;SDS011;10632;51.276;7.116;2023-04-25T03:26:48;7.55;;;2.45;;
20945;SDS011;10632;51.276;7.116;2023-04-25T03:29:15;12.27;;;2.85;;
20945;SDS011;10632;51.276;7.116;2023-04-25T03:31:42;9.32;;;2.70;;
20945;SDS011;10632;51.276;7.116;2023-04-25T03:34:09;13.48;;;2.78;;
20945;SDS011;10632;51.276;7.116;2023-04-25T03:36:36;13.25;;;2.55;;
20945;SDS011;10632;51.276;7.116;2023-04-25T03:39:04;9.63;;;2.50;;
20945;SDS011;10632;51.276;7.116;2023-04-25T03:41:31;12.68;;;2.30;;
20945;SDS011;10632;51.276;7.116;2023-04-25T03:43:58;12.40;;;3.03;;
20945;SDS011;10632;51.276;7.116;2023-04-25T03:46:25;12.93;;;3.20;;
20945;SDS011;10632;51.276;7.116;2023-04-25T03:48:52;9.25;;;2.50;;
20945;SDS011;10632;51.276;7.116;2023-04-25T03:51:19;13.65;;;2.60;;
20945;SDS011;10632;51.276;7.116;2023-04-25T03:53:46;14.30;;;3.13;;
20945;SDS011;10632;51.276;7.116;2023-04-25T03:56:15;8.68;;;3.28;;
20945;SDS011;10632;51.276;7.116;2023-04-25T03:58:41;13.30;;;3.10;;
20945;SDS011;10632;51.276;7.116;2023-04-25T04:01:08;12.68;;;3.30;;
20945;SDS011;10632;51.276;7.116;2023-04-25T04:03:36;12.00;;;3.35;;
20945;SDS011;10632;51.276;7.116;2023-04-25T04:06:03;12.10;;;3.17;;
20945;SDS011;10632;51.276;7.116;2023-04-25T04:08:31;13.13;;;3.90;;
20945;SDS011;10632;51.276;7.116;2023-04-25T04:10:58;14.07;;;3.08;;
20945;SDS011;10632;51.276;7.116;2023-04-25T04:13:27;12.67;;;3.33;;
20945;SDS011;10632;51.276;7.116;2023-04-25T04:15:55;13.52;;;3.08;;
20945;SDS011;10632;51.276;7.116;2023-04-25T04:18:22;7.53;;;2.75;;
20945;SDS011;10632;51.276;7.116;2023-04-25T04:20:49;17.33;;;3.47;;
20945;SDS011;10632;51.276;7.116;2023-04-25T04:23:16;9.43;;;2.33;;
20945;SDS011;10632;51.276;7.116;2023-04-25T04:25:43;11.70;;;2.92;;
20945;SDS011;10632;51.276;7.116;2023-04-25T04:28:10;13.55;;;2.63;;
20945;SDS011;10632;51.276;7.116;2023-04-25T04:30:39;13.52;;;2.83;;
20945;SDS011;10632;51.276;7.116;2023-04-25T04:33:07;10.40;;;2.88;;
20945;SDS011;10632;51.276;7.116;2023-04-25T04:35:34;11.70;;;2.70;;
20945;SDS011;10632;51.276;7.116;2023-04-25T04:38:01;10.70;;;2.55;;
20945;SDS011;10632;51.276;7.116;2023-04-25T04:40:28;10.82;;;3.00;;
20945;SDS011;10632;51.276;7.116;2023-04-25T04:42:57;11.73;;;2.67;;
20945;SDS011;10632;51.276;7.116;2023-04-25T04:45:24;17.40;;;2.90;;
20945;SDS011;10632;51.276;7.116;2023-04-25T04:47:54;14.23;;;3.43;;
20945;SDS011;10632;51.276;7.116;2023-04-25T04:50:21;13.80;;;2.72;;
20945;SDS011;10632;51.276;7.116;2023-04-25T04:52:48;13.23;;;2.80;;
20945;SDS011;10632;51.276;7.116;2023-04-25T04:55:15;16.43;;;3.00;;
20945;SDS011;10632;51.276;7.116;2023-04-25T04:57:43;14.00;;;3.20;;
20945;SDS011;10632;51.276;7.116;2023-04-25T05:00:11;13.23;;;2.97;;
20945;SDS011;10632;51.276;7.116;2023-04-25T05:02:38;13.77;;;3.20;;
20945;SDS011;10632;51.276;7.116;2023-04-25T05:05:07;9.33;;;2.70;;
20945;SDS011;10632;51.276;7.116;2023-04-25T05:07:35;9.52;;;3.25;;
20945;SDS011;10632;51.276;7.116;2023-04-25T05:10:02;10.63;;;3.20;;
20945;SDS011;10632;51.276;7.116;2023-04-25T05:12:30;13.10;;;3.47;;
20945;SDS011;10632;51.276;7.116;2023-04-25T05:14:57;10.23;;;3.20;;
20945;SDS011;10632;51.276;7.116;2023-04-25T05:17:24;19.05;;;3.92;;
20945;SDS011;10632;51.276;7.116;2023-04-25T05:19:51;13.27;;;4.03;;
20945;SDS011;10632;51.276;7.116;2023-04-25T05:22:19;13.27;;;3.63;;
20945;SDS011;10632;51.276;7.116;2023-04-25T05:24:46;11.93;;;3.80;;
20945;SDS011;10632;51.276;7.116;2023-04-25T05:27:13;20.73;;;4.05;;
20945;SDS011;10632;51.276;7.116;2023-04-25T05:29:42;12.63;;;3.20;;
20945;SDS011;10632;51.276;7.116;2023-04-25T05:32:09;15.97;;;3.00;;
20945;SDS011;10632;51.276;7.116;2023-04-25T05:34:36;20.73;;;3.67;;
20945;SDS011;10632;51.276;7.116;2023-04-25T05:37:03;14.95;;;3.33;;
20945;SDS011;10632;51.276;7.116;2023-04-25T05:39:34;13.95;;;3.75;;
20945;SDS011;10632;51.276;7.116;2023-04-25T05:42:04;10.67;;;3.07;;
20945;SDS011;10632;51.276;7.116;2023-04-25T05:44:31;9.43;;;2.93;;
20945;SDS011;10632;51.276;7.116;2023-04-25T05:46:58;14.03;;;3.20;;
20945;SDS011;10632;51.276;7.116;2023-04-25T05:49:25;11.43;;;2.80;;
20945;SDS011;10632;51.276;7.116;2023-04-25T05:51:52;10.52;;;2.92;;
20945;SDS011;10632;51.276;7.116;2023-04-25T05:54:19;13.25;;;3.05;;
20945;SDS011;10632;51.276;7.116;2023-04-25T05:56:47;7.13;;;2.60;;
20945;SDS011;10632;51.276;7.116;2023-04-25T05:59:15;10.67;;;2.87;;
20945;SDS011;10632;51.276;7.116;2023-04-25T06:01:42;15.47;;;3.40;;
20945;SDS011;10632;51.276;7.116;2023-04-25T06:04:11;10.33;;;3.07;;
20945;SDS011;10632;51.276;7.116;2023-04-25T06:06:38;12.95;;;3.25;;
20945;SDS011;10632;51.276;7.116;2023-04-25T06:09:05;9.85;;;2.78;;
20945;SDS011;10632;51.276;7.116;2023-04-25T06:11:32;20.92;;;3.60;;
20945;SDS011;10632;51.276;7.116;2023-04-25T06:14:00;10.40;;;2.55;;
20945;SDS011;10632;51.276;7.116;2023-04-25T06:16:27;14.60;;;3.43;;
20945;SDS011;10632;51.276;7.116;2023-04-25T06:18:54;11.18;;;2.65;;
20945;SDS011;10632;51.276;7.116;2023-04-25T06:21:21;15.02;;;3.63;;
20945;SDS011;10632;51.276;7.116;2023-04-25T06:23:48;12.45;;;3.38;;
20945;SDS011;10632;51.276;7.116;2023-04-25T06:26:15;9.93;;;2.87;;
20945;SDS011;10632;51.276;7.116;2023-04-25T06:28:42;10.40;;;3.60;;
20945;SDS011;10632;51.276;7.116;2023-04-25T06:31:10;16.20;;;3.40;;
20945;SDS011;10632;51.276;7.116;2023-04-25T06:33:37;11.57;;;2.95;;
20945;SDS011;10632;51.276;7.116;2023-04-25T06:36:04;11.32;;;2.97;;
20945;SDS011;10632;51.276;7.116;2023-04-25T06:38:31;14.90;;;3.07;;
20945;SDS011;10632;51.276;7.116;2023-04-25T06:40:59;10.48;;;2.85;;
20945;SDS011;10632;51.276;7.116;2023-04-25T06:43:27;15.18;;;2.97;;
20945;SDS011;10632;51.276;7.116;2023-04-25T06:45:57;11.70;;;2.83;;
20945;SDS011;10632;51.276;7.116;2023-04-25T06:48:26;8.52;;;2.47;;
20945;SDS011;10632;51.276;7.116;2023-04-25T06:50:53;10.75;;;2.67;;
20945;SDS011;10632;51.276;7.116;2023-04-25T06:53:21;11.35;;;2.72;;
20945;SDS011;10632;51.276;7.116;2023-04-25T06:55:48;12.20;;;2.83;;
20945;SDS011;10632;51.276;7.116;2023-04-25T06:58:15;11.60;;;3.30;;
20945;SDS011;10632;51.276;7.116;2023-04-25T07:00:42;7.13;;;2.00;;
20945;SDS011;10632;51.276;7.116;2023-04-25T07:03:09;10.73;;;2.90;;
20945;SDS011;10632;51.276;7.116;2023-04-25T07:05:37;12.23;;;3.28;;
20945;SDS011;10632;51.276;7.116;2023-04-25T07:08:04;12.30;;;3.60;;
20945;SDS011;10632;51.276;7.116;2023-04-25T07:10:31;13.23;;;3.45;;
20945;SDS011;10632;51.276;7.116;2023-04-25T07:12:58;9.45;;;2.60;;
20945;SDS011;10632;51.276;7.116;2023-04-25T07:15:25;14.73;;;4.00;;
20945;SDS011;10632;51.276;7.116;2023-04-25T07:17:52;10.75;;;3.22;;
20945;SDS011;10632;51.276;7.116;2023-04-25T07:20:18;7.18;;;2.50;;
20945;SDS011;10632;51.276;7.116;2023-04-25T07:22:47;9.88;;;2.58;;
20945;SDS011;10632;51.276;7.116;2023-04-25T07:25:15;7.10;;;2.13;;
20945;SDS011;10632;51.276;7.116;2023-04-25T07:27:42;16.38;;;2.20;;
20945;SDS011;10632;51.276;7.116;2023-04-25T07:30:09;7.22;;;1.90;;
20945;SDS011;10632;51.276;7.116;2023-04-25T07:32:37;8.43;;;1.83;;
20945;SDS011;10632;51.276;7.116;2023-04-25T07:35:05;4.57;;;1.52;;
20945;SDS011;10632;51.276;7.116;2023-04-25T07:37:33;7.88;;;1.65;;
20945;SDS011;10632;51.276;7.116;2023-04-25T07:40:01;5.13;;;1.40;;
20945;SDS011;10632;51.276;7.116;2023-04-25T07:42:29;10.15;;;1.60;;
20945;SDS011;10632;51.276;7.116;2023-04-25T07:44:56;4.38;;;1.58;;
20945;SDS011;10632;51.276;7.116;2023-04-25T07:47:23;5.35;;;1.75;;
20945;SDS011;10632;51.276;7.116;2023-04-25T07:49:50;9.85;;;1.63;;
20945;SDS011;10632;51.276;7.116;2023-04-25T07:52:18;6.85;;;1.52;;
20945;SDS011;10632;51.276;7.116;2023-04-25T07:54:44;10.45;;;1.60;;
20945;SDS011;10632;51.276;7.116;2023-04-25T07:57:13;7.97;;;2.03;;
20945;SDS011;10632;51.276;7.116;2023-04-25T07:59:42;5.03;;;1.52;;
20945;SDS011;10632;51.276;7.116;2023-04-25T08:02:08;16.52;;;1.50;;
20945;SDS011;10632;51.276;7.116;2023-04-25T08:04:35;5.60;;;1.40;;
20945;SDS011;10632;51.276;7.116;2023-04-25T08:07:02;8.48;;;2.30;;
20945;SDS011;10632;51.276;7.116;2023-04-25T08:09:29;7.75;;;1.50;;
20945;SDS011;10632;51.276;7.116;2023-04-25T08:11:59;7.90;;;1.60;;
20945;SDS011;10632;51.276;7.116;2023-04-25T08:14:28;3.35;;;1.45;;
20945;SDS011;10632;51.276;7.116;2023-04-25T08:17:00;5.53;;;1.20;;
20945;SDS011;10632;51.276;7.116;2023-04-25T08:19:28;3.67;;;1.60;;
20945;SDS011;10632;51.276;7.116;2023-04-25T08:21:55;3.58;;;1.15;;
20945;SDS011;10632;51.276;7.116;2023-04-25T08:24:22;7.75;;;1.30;;
20945;SDS011;10632;51.276;7.116;2023-04-25T08:26:49;8.95;;;1.48;;
20945;SDS011;10632;51.276;7.116;2023-04-25T08:29:17;4.10;;;1.33;;
20945;SDS011;10632;51.276;7.116;2023-04-25T08:31:45;8.50;;;1.48;;
20945;SDS011;10632;51.276;7.116;2023-04-25T08:34:13;3.10;;;0.90;;
20945;SDS011;10632;51.276;7.116;2023-04-25T08:36:40;5.60;;;0.98;;
20945;SDS011;10632;51.276;7.116;2023-04-25T08:39:07;8.45;;;0.90;;
20945;SDS011;10632;51.276;7.116;2023-04-25T08:41:34;7.68;;;1.10;;
20945;SDS011;10632;51.276;7.116;2023-04-25T08:44:02;15.68;;;2.03;;
20945;SDS011;10632;51.276;7.116;2023-04-25T08:46:31;3.63;;;0.80;;
20945;SDS011;10632;51.276;7.116;2023-04-25T08:49:00;3.08;;;0.70;;
20945;SDS011;10632;51.276;7.116;2023-04-25T08:51:29;5.03;;;1.05;;
20945;SDS011;10632;51.276;7.116;2023-04-25T08:53:59;5.47;;;1.00;;
20945;SDS011;10632;51.276;7.116;2023-04-25T08:56:34;3.08;;;0.90;;
20945;SDS011;10632;51.276;7.116;2023-04-25T08:59:01;3.13;;;0.40;;
20945;SDS011;10632;51.276;7.116;2023-04-25T09:01:28;7.72;;;1.25;;
20945;SDS011;10632;51.276;7.116;2023-04-25T09:03:57;1.85;;;0.80;;
20945;SDS011;10632;51.276;7.116;2023-04-25T09:06:25;4.32;;;1.02;;
20945;SDS011;10632;51.276;7.116;2023-04-25T09:08:53;7.20;;;1.30;;
20945;SDS011;10632;51.276;7.116;2023-04-25T09:11:20;4.88;;;1.08;;
20945;SDS011;10632;51.276;7.116;2023-04-25T09:13:47;3.03;;;0.80;;
20945;SDS011;10632;51.276;7.116;2023-04-25T09:16:14;3.42;;;0.80;;
20945;SDS011;10632;51.276;7.116;2023-04-25T09:18:44;7.35;;;1.15;;
20945;SDS011;10632;51.276;7.116;2023-04-25T09:21:15;6.05;;;0.90;;
20945;SDS011;10632;51.276;7.116;2023-04-25T09:23:45;4.80;;;0.85;;
20945;SDS011;10632;51.276;7.116;2023-04-25T09:26:14;2.13;;;0.80;;
20945;SDS011;10632;51.276;7.116;2023-04-25T09:28:43;3.38;;;1.00;;
20945;SDS011;10632;51.276;7.116;2023-04-25T09:31:10;7.65;;;1.00;;
20945;SDS011;10632;51.276;7.116;2023-04-25T09:33:40;3.22;;;0.80;;
20945;SDS011;10632;51.276;7.116;2023-04-25T09:36:07;2.92;;;0.68;;
20945;SDS011;10632;51.276;7.116;2023-04-25T09:38:39;2.00;;;0.60;;
20945;SDS011;10632;51.276;7.116;2023-04-25T09:41:09;1.75;;;0.60;;
20945;SDS011;10632;51.276;7.116;2023-04-25T09:43:36;4.22;;;0.90;;
20945;SDS011;10632;51.276;7.116;2023-04-25T09:46:07;6.07;;;1.40;;
20945;SDS011;10632;51.276;7.116;2023-04-25T09:48:36;3.30;;;0.73;;
20945;SDS011;10632;51.276;7.116;2023-04-25T09:51:03;4.43;;;0.88;;
20945;SDS011;10632;51.276;7.116;2023-04-25T09:53:31;4.70;;;1.00;;
20945;SDS011;10632;51.276;7.116;2023-04-25T09:55:59;5.93;;;0.90;;
20945;SDS011;10632;51.276;7.116;2023-04-25T09:58:31;4.97;;;1.02;;
20945;SDS011;10632;51.276;7.116;2023-04-25T10:00:59;3.47;;;0.80;;
20945;SDS011;10632;51.276;7.116;2023-04-25T10:03:29;2.10;;;0.77;;
20945;SDS011;10632;51.276;7.116;2023-04-25T10:05:56;2.92;;;0.80;;
20945;SDS011;10632;51.276;7.116;2023-04-25T10:08:26;2.22;;;0.70;;
20945;SDS011;10632;51.276;7.116;2023-04-25T10:10:57;4.97;;;0.77;;
20945;SDS011;10632;51.276;7.116;2023-04-25T10:13:26;3.85;;;0.68;;
20945;SDS011;10632;51.276;7.116;2023-04-25T10:15:56;4.68;;;1.02;;
20945;SDS011;10632;51.276;7.116;2023-04-25T10:18:24;8.00;;;0.70;;
20945;SDS011;10632;51.276;7.116;2023-04-25T10:20:53;9.60;;;0.80;;
20945;SDS011;10632;51.276;7.116;2023-04-25T10:23:21;5.75;;;0.90;;
20945;SDS011;10632;51.276;7.116;2023-04-25T10:25:49;4.43;;;0.70;;
20945;SDS011;10632;51.276;7.116;2023-04-25T10:28:17;4.43;;;0.70;;
20945;SDS011;10632;51.276;7.116;2023-04-25T10:30:57;4.78;;;0.88;;
20945;SDS011;10632;51.276;7.116;2023-04-25T10:33:36;4.90;;;0.60;;
20945;SDS011;10632;51.276;7.116;2023-04-25T10:36:10;3.47;;;0.82;;
20945;SDS011;10632;51.276;7.116;2023-04-25T10:38:37;4.35;;;0.80;;
20945;SDS011;10632;51.276;7.116;2023-04-25T10:41:06;3.38;;;0.90;;
20945;SDS011;10632;51.276;7.116;2023-04-25T10:43:35;3.15;;;0.82;;
20945;SDS011;10632;51.276;7.116;2023-04-25T10:46:13;3.80;;;0.80;;
20945;SDS011;10632;51.276;7.116;2023-04-25T10:48:47;2.85;;;0.80;;
20945;SDS011;10632;51.276;7.116;2023-04-25T10:51:16;2.97;;;0.70;;
20945;SDS011;10632;51.276;7.116;2023-04-25T10:53:56;5.85;;;0.70;;
20945;SDS011;10632;51.276;7.116;2023-04-25T10:56:25;1.50;;;0.68;;
20945;SDS011;10632;51.276;7.116;2023-04-25T10:59:02;5.38;;;0.95;;
20945;SDS011;10632;51.276;7.116;2023-04-25T11:01:36;2.90;;;0.50;;
20945;SDS011;10632;51.276;7.116;2023-04-25T11:04:05;3.60;;;0.80;;
20945;SDS011;10632;51.276;7.116;2023-04-25T11:06:35;4.40;;;0.70;;
20945;SDS011;10632;51.276;7.116;2023-04-25T11:09:13;4.00;;;0.80;;
20945;SDS011;10632;51.276;7.116;2023-04-25T11:11:39;2.95;;;0.80;;
20945;SDS011;10632;51.276;7.116;2023-04-25T11:14:06;2.40;;;0.80;;
20945;SDS011;10632;51.276;7.116;2023-04-25T11:16:33;3.53;;;0.60;;
20945;SDS011;10632;51.276;7.116;2023-04-25T11:19:05;2.63;;;0.50;;
20945;SDS011;10632;51.276;7.116;2023-04-25T11:21:32;5.20;;;0.68;;
20945;SDS011;10632;51.276;7.116;2023-04-25T11:23:58;1.95;;;0.77;;
20945;SDS011;10632;51.276;7.116;2023-04-25T11:26:26;2.22;;;0.50;;
20945;SDS011;10632;51.276;7.116;2023-04-25T11:28:56;5.78;;;1.02;;
20945;SDS011;10632;51.276;7.116;2023-04-25T11:31:25;2.67;;;0.77;;
20945;SDS011;10632;51.276;7.116;2023-04-25T11:33:54;2.95;;;0.65;;
20945;SDS011;10632;51.276;7.116;2023-04-25T11:36:22;8.02;;;0.80;;
20945;SDS011;10632;51.276;7.116;2023-04-25T11:38:50;1.35;;;0.63;;
20945;SDS011;10632;51.276;7.116;2023-04-25T11:41:20;4.88;;;1.00;;
20945;SDS011;10632;51.276;7.116;2023-04-25T11:43:48;2.60;;;0.60;;
20945;SDS011;10632;51.276;7.116;2023-04-25T11:46:16;2.50;;;0.70;;
20945;SDS011;10632;51.276;7.116;2023-04-25T11:48:45;6.35;;;1.17;;
20945;SDS011;10632;51.276;7.116;2023-04-25T11:51:14;1.70;;;0.60;;
20945;SDS011;10632;51.276;7.116;2023-04-25T11:53:41;3.92;;;0.52;;
20945;SDS011;10632;51.276;7.116;2023-04-25T11:56:09;1.58;;;0.60;;
20945;SDS011;10632;51.276;7.116;2023-04-25T12:01:25;3.45;;;0.75;;
20945;SDS011;10632;51.276;7.116;2023-04-25T12:03:53;2.85;;;0.80;;
20945;SDS011;10632;51.276;7.116;2023-04-25T12:06:21;3.15;;;0.90;;
20945;SDS011;10632;51.276;7.116;2023-04-25T12:08:59;1.30;;;0.65;;
20945;SDS011;10632;51.276;7.116;2023-04-25T12:11:26;4.00;;;0.98;;
20945;SDS011;10632;51.276;7.116;2023-04-25T12:13:53;3.10;;;1.10;;
20945;SDS011;10632;51.276;7.116;2023-04-25T12:16:20;2.97;;;0.98;;
20945;SDS011;10632;51.276;7.116;2023-04-25T12:18:47;4.32;;;1.00;;
20945;SDS011;10632;51.276;7.116;2023-04-25T12:21:14;3.95;;;0.98;;
20945;SDS011;10632;51.276;7.116;2023-04-25T12:23:45;6.43;;;1.30;;
20945;SDS011;10632;51.276;7.116;2023-04-25T12:26:12;4.38;;;0.85;;
20945;SDS011;10632;51.276;7.116;2023-04-25T12:28:39;4.60;;;0.60;;
20945;SDS011;10632;51.276;7.116;2023-04-25T12:31:06;2.95;;;0.77;;
20945;SDS011;10632;51.276;7.116;2023-04-25T12:33:34;1.80;;;0.75;;
20945;SDS011;10632;51.276;7.116;2023-04-25T12:36:03;1.92;;;0.60;;
20945;SDS011;10632;51.276;7.116;2023-04-25T12:38:35;4.13;;;1.10;;
20945;SDS011;10632;51.276;7.116;2023-04-25T12:41:04;4.35;;;0.80;;
20945;SDS011;10632;51.276;7.116;2023-04-25T12:43:32;4.63;;;1.30;;
20945;SDS011;10632;51.276;7.116;2023-04-25T12:45:59;4.78;;;0.80;;
20945;SDS011;10632;51.276;7.116;2023-04-25T12:48:26;3.85;;;0.88;;
20945;SDS011;10632;51.276;7.116;2023-04-25T12:50:53;5.07;;;1.00;;
20945;SDS011;10632;51.276;7.116;2023-04-25T12:53:22;3.10;;;0.80;;
20945;SDS011;10632;51.276;7.116;2023-04-25T12:55:50;4.35;;;0.70;;
20945;SDS011;10632;51.276;7.116;2023-04-25T12:58:19;4.80;;;1.05;;
20945;SDS011;10632;51.276;7.116;2023-04-25T13:00:46;2.38;;;1.00;;
20945;SDS011;10632;51.276;7.116;2023-04-25T13:03:13;2.28;;;0.90;;
20945;SDS011;10632;51.276;7.116;2023-04-25T13:05:40;6.88;;;1.50;;
20945;SDS011;10632;51.276;7.116;2023-04-25T13:08:08;3.50;;;1.30;;
20945;SDS011;10632;51.276;7.116;2023-04-25T13:10:37;4.93;;;1.70;;
20945;SDS011;10632;51.276;7.116;2023-04-25T13:13:04;3.30;;;1.25;;
20945;SDS011;10632;51.276;7.116;2023-04-25T13:15:32;4.68;;;1.38;;
20945;SDS011;10632;51.276;7.116;2023-04-25T13:17:59;6.38;;;1.15;;
20945;SDS011;10632;51.276;7.116;2023-04-25T13:20:26;3.03;;;1.15;;
20945;SDS011;10632;51.276;7.116;2023-04-25T13:22:53;5.25;;;1.20;;
20945;SDS011;10632;51.276;7.116;2023-04-25T13:25:20;2.72;;;1.20;;
20945;SDS011;10632;51.276;7.116;2023-04-25T13:27:50;6.15;;;1.75;;
20945;SDS011;10632;51.276;7.116;2023-04-25T13:30:17;2.50;;;0.77;;
20945;SDS011;10632;51.276;7.116;2023-04-25T13:32:46;2.70;;;0.70;;
20945;SDS011;10632;51.276;7.116;2023-04-25T13:35:13;1.20;;;0.50;;
20945;SDS011;10632;51.276;7.116;2023-04-25T13:37:40;3.33;;;0.82;;
20945;SDS011;10632;51.276;7.116;2023-04-25T13:40:07;2.55;;;0.60;;
20945;SDS011;10632;51.276;7.116;2023-04-25T13:42:36;4.90;;;0.55;;
20945;SDS011;10632;51.276;7.116;2023-04-25T13:45:04;1.80;;;0.70;;
20945;SDS011;10632;51.276;7.116;2023-04-25T13:47:31;3.05;;;0.70;;
20945;SDS011;10632;51.276;7.116;2023-04-25T13:50:02;4.80;;;0.80;;
20945;SDS011;10632;51.276;7.116;2023-04-25T13:52:30;2.10;;;0.63;;
20945;SDS011;10632;51.276;7.116;2023-04-25T13:54:57;4.32;;;0.98;;
20945;SDS011;10632;51.276;7.116;2023-04-25T13:57:29;3.58;;;1.10;;
20945;SDS011;10632;51.276;7.116;2023-04-25T13:59:56;2.30;;;1.20;;
20945;SDS011;10632;51.276;7.116;2023-04-25T14:02:24;2.05;;;0.93;;
20945;SDS011;10632;51.276;7.116;2023-04-25T14:04:51;1.98;;;0.90;;
20945;SDS011;10632;51.276;7.116;2023-04-25T14:07:19;2.42;;;0.82;;
20945;SDS011;10632;51.276;7.116;2023-04-25T14:09:46;1.88;;;1.00;;
20945;SDS011;10632;51.276;7.116;2023-04-25T14:12:13;4.28;;;1.30;;
20945;SDS011;10632;51.276;7.116;2023-04-25T14:14:40;2.38;;;1.00;;
20945;SDS011;10632;51.276;7.116;2023-04-25T14:17:07;2.10;;;0.90;;
20945;SDS011;10632;51.276;7.116;2023-04-25T14:19:35;3.47;;;1.20;;
20945;SDS011;10632;51.276;7.116;2023-04-25T14:22:03;1.90;;;0.98;;
20945;SDS011;10632;51.276;7.116;2023-04-25T14:24:32;4.43;;;1.10;;
20945;SDS011;10632;51.276;7.116;2023-04-25T14:26:59;4.18;;;1.20;;
20945;SDS011;10632;51.276;7.116;2023-04-25T14:29:26;1.85;;;0.73;;
20945;SDS011;10632;51.276;7.116;2023-04-25T14:31:53;5.57;;;1.15;;
20945;SDS011;10632;51.276;7.116;2023-04-25T14:34:22;3.05;;;1.10;;
20945;SDS011;10632;51.276;7.116;2023-04-25T14:36:49;3.67;;;1.10;;
20945;SDS011;10632;51.276;7.116;2023-04-25T14:39:16;2.83;;;0.90;;
20945;SDS011;10632;51.276;7.116;2023-04-25T14:41:44;2.53;;;0.90;;
20945;SDS011;10632;51.276;7.116;2023-04-25T14:44:11;4.68;;;0.80;;
20945;SDS011;10632;51.276;7.116;2023-04-25T14:46:38;3.20;;;1.00;;
20945;SDS011;10632;51.276;7.116;2023-04-25T14:49:05;2.30;;;0.85;;